sensor_id;sensor_type;location;lat;lon;timestamp;P1;durP1;ratioP1;P2;durP2;ratioP2
75680;SDS011;64294;49.176;16.626;2023-01-09T00:00:08;58.05;;;21.38;;
75680;SDS011;64294;49.176;16.626;2023-01-09T00:02:35;57.75;;;22.63;;
75680;SDS011;64294;49.176;16.626;2023-01-09T00:05:04;58.08;;;22.60;;
75680;SDS011;64294;49.176;16.626;2023-01-09T00:07:31;54.67;;;21.92;;
75680;SDS011;64294;49.176;16.626;2023-01-09T00:09:57;58.97;;;22.08;;
75680;SDS011;64294;49.176;16.626;2023-01-09T00:12:22;60.13;;;22.42;;
75680;SDS011;64294;49.176;16.626;2023-01-09T00:14:47;52.03;;;21.75;;
75680;SDS011;64294;49.176;16.626;2023-01-09T00:17:13;58.70;;;21.95;;
75680;SDS011;64294;49.176;16.626;2023-01-09T00:19:38;58.20;;;21.67;;
75680;SDS011;64294;49.176;16.626;2023-01-09T00:22:04;57.92;;;21.63;;
75680;SDS011;64294;49.176;16.626;2023-01-09T00:24:30;59.20;;;23.05;;
75680;SDS011;64294;49.176;16.626;2023-01-09T00:26:56;63.92;;;23.98;;
75680;SDS011;64294;49.176;16.626;2023-01-09T00:29:21;55.92;;;22.58;;
75680;SDS011;64294;49.176;16.626;2023-01-09T00:31:47;59.70;;;22.98;;
75680;SDS011;64294;49.176;16.626;2023-01-09T00:34:12;56.40;;;22.52;;
75680;SDS011;64294;49.176;16.626;2023-01-09T00:36:38;55.42;;;23.02;;
75680;SDS011;64294;49.176;16.626;2023-01-09T00:39:04;54.28;;;21.55;;
75680;SDS011;64294;49.176;16.626;2023-01-09T00:41:31;58.50;;;23.63;;
75680;SDS011;64294;49.176;16.626;2023-01-09T00:44:12;57.20;;;21.95;;
75680;SDS011;64294;49.176;16.626;2023-01-09T00:46:42;50.25;;;21.02;;
75680;SDS011;64294;49.176;16.626;2023-01-09T00:49:11;54.67;;;21.98;;
75680;SDS011;64294;49.176;16.626;2023-01-09T00:51:38;51.08;;;21.50;;
75680;SDS011;64294;49.176;16.626;2023-01-09T00:54:06;62.00;;;23.77;;
75680;SDS011;64294;49.176;16.626;2023-01-09T00:56:35;64.38;;;24.20;;
75680;SDS011;64294;49.176;16.626;2023-01-09T00:59:01;54.72;;;22.02;;
75680;SDS011;64294;49.176;16.626;2023-01-09T01:01:28;57.38;;;21.88;;
75680;SDS011;64294;49.176;16.626;2023-01-09T01:03:53;51.78;;;21.92;;
75680;SDS011;64294;49.176;16.626;2023-01-09T01:06:19;55.63;;;21.67;;
75680;SDS011;64294;49.176;16.626;2023-01-09T01:09:17;51.58;;;20.75;;
75680;SDS011;64294;49.176;16.626;2023-01-09T01:11:42;57.55;;;23.73;;
75680;SDS011;64294;49.176;16.626;2023-01-09T01:14:08;54.97;;;23.02;;
75680;SDS011;64294;49.176;16.626;2023-01-09T01:16:33;54.38;;;22.67;;
75680;SDS011;64294;49.176;16.626;2023-01-09T01:18:59;57.05;;;22.98;;
75680;SDS011;64294;49.176;16.626;2023-01-09T01:21:24;58.67;;;23.88;;
75680;SDS011;64294;49.176;16.626;2023-01-09T01:23:49;53.58;;;22.40;;
75680;SDS011;64294;49.176;16.626;2023-01-09T01:26:15;54.70;;;22.50;;
75680;SDS011;64294;49.176;16.626;2023-01-09T01:28:41;53.85;;;21.75;;
75680;SDS011;64294;49.176;16.626;2023-01-09T01:31:06;59.17;;;22.90;;
75680;SDS011;64294;49.176;16.626;2023-01-09T01:33:32;56.05;;;22.27;;
75680;SDS011;64294;49.176;16.626;2023-01-09T01:36:03;58.05;;;22.35;;
75680;SDS011;64294;49.176;16.626;2023-01-09T01:38:30;55.95;;;22.13;;
75680;SDS011;64294;49.176;16.626;2023-01-09T01:40:56;53.85;;;21.58;;
75680;SDS011;64294;49.176;16.626;2023-01-09T01:43:21;51.80;;;21.25;;
75680;SDS011;64294;49.176;16.626;2023-01-09T01:45:47;54.08;;;22.25;;
75680;SDS011;64294;49.176;16.626;2023-01-09T01:48:14;50.60;;;22.40;;
75680;SDS011;64294;49.176;16.626;2023-01-09T01:55:57;54.30;;;22.58;;
75680;SDS011;64294;49.176;16.626;2023-01-09T01:58:26;49.63;;;21.13;;
75680;SDS011;64294;49.176;16.626;2023-01-09T02:00:52;54.63;;;21.80;;
75680;SDS011;64294;49.176;16.626;2023-01-09T02:03:18;51.75;;;20.88;;
75680;SDS011;64294;49.176;16.626;2023-01-09T02:05:50;54.72;;;22.95;;
75680;SDS011;64294;49.176;16.626;2023-01-09T02:08:15;49.70;;;21.50;;
75680;SDS011;64294;49.176;16.626;2023-01-09T02:10:42;51.25;;;20.73;;
75680;SDS011;64294;49.176;16.626;2023-01-09T02:13:09;47.42;;;19.88;;
75680;SDS011;64294;49.176;16.626;2023-01-09T02:21:14;44.85;;;20.10;;
75680;SDS011;64294;49.176;16.626;2023-01-09T02:40:32;43.95;;;18.35;;
75680;SDS011;64294;49.176;16.626;2023-01-09T02:43:04;45.08;;;19.38;;
75680;SDS011;64294;49.176;16.626;2023-01-09T02:45:31;44.25;;;19.52;;
75680;SDS011;64294;49.176;16.626;2023-01-09T02:47:56;40.42;;;18.63;;
75680;SDS011;64294;49.176;16.626;2023-01-09T02:50:26;44.75;;;19.35;;
75680;SDS011;64294;49.176;16.626;2023-01-09T02:55:57;40.72;;;16.98;;
75680;SDS011;64294;49.176;16.626;2023-01-09T03:01:28;38.38;;;17.20;;
75680;SDS011;64294;49.176;16.626;2023-01-09T03:07:12;37.40;;;17.23;;
75680;SDS011;64294;49.176;16.626;2023-01-09T03:09:58;37.65;;;18.27;;
75680;SDS011;64294;49.176;16.626;2023-01-09T03:12:30;36.22;;;17.35;;
75680;SDS011;64294;49.176;16.626;2023-01-09T03:14:58;33.58;;;16.75;;
75680;SDS011;64294;49.176;16.626;2023-01-09T03:17:31;36.03;;;16.90;;
75680;SDS011;64294;49.176;16.626;2023-01-09T03:20:02;34.00;;;16.13;;
75680;SDS011;64294;49.176;16.626;2023-01-09T03:22:30;33.05;;;15.50;;
75680;SDS011;64294;49.176;16.626;2023-01-09T03:24:56;34.80;;;15.70;;
75680;SDS011;64294;49.176;16.626;2023-01-09T03:27:21;30.10;;;15.60;;
75680;SDS011;64294;49.176;16.626;2023-01-09T03:29:47;30.42;;;14.90;;
75680;SDS011;64294;49.176;16.626;2023-01-09T03:32:12;30.95;;;15.55;;
75680;SDS011;64294;49.176;16.626;2023-01-09T03:34:38;30.95;;;15.10;;
75680;SDS011;64294;49.176;16.626;2023-01-09T03:37:03;31.67;;;15.10;;
75680;SDS011;64294;49.176;16.626;2023-01-09T03:39:29;31.23;;;14.40;;
75680;SDS011;64294;49.176;16.626;2023-01-09T03:41:55;31.17;;;15.40;;
75680;SDS011;64294;49.176;16.626;2023-01-09T03:44:21;30.60;;;13.60;;
75680;SDS011;64294;49.176;16.626;2023-01-09T03:46:46;27.77;;;13.98;;
75680;SDS011;64294;49.176;16.626;2023-01-09T03:49:14;28.02;;;13.93;;
75680;SDS011;64294;49.176;16.626;2023-01-09T03:51:40;27.60;;;14.40;;
75680;SDS011;64294;49.176;16.626;2023-01-09T03:54:05;28.85;;;13.65;;
75680;SDS011;64294;49.176;16.626;2023-01-09T03:56:31;28.40;;;14.02;;
75680;SDS011;64294;49.176;16.626;2023-01-09T03:58:56;31.20;;;14.65;;
75680;SDS011;64294;49.176;16.626;2023-01-09T04:01:22;28.30;;;14.10;;
75680;SDS011;64294;49.176;16.626;2023-01-09T04:03:47;32.28;;;14.88;;
75680;SDS011;64294;49.176;16.626;2023-01-09T04:06:12;31.20;;;14.35;;
75680;SDS011;64294;49.176;16.626;2023-01-09T04:08:38;38.80;;;14.93;;
75680;SDS011;64294;49.176;16.626;2023-01-09T04:11:03;42.97;;;15.15;;
75680;SDS011;64294;49.176;16.626;2023-01-09T04:13:29;40.92;;;14.10;;
75680;SDS011;64294;49.176;16.626;2023-01-09T04:15:54;38.55;;;15.45;;
75680;SDS011;64294;49.176;16.626;2023-01-09T04:18:19;41.55;;;14.52;;
75680;SDS011;64294;49.176;16.626;2023-01-09T04:20:45;38.97;;;15.48;;
75680;SDS011;64294;49.176;16.626;2023-01-09T04:23:12;32.70;;;15.75;;
75680;SDS011;64294;49.176;16.626;2023-01-09T04:25:37;34.65;;;15.02;;
75680;SDS011;64294;49.176;16.626;2023-01-09T04:28:03;34.13;;;14.55;;
75680;SDS011;64294;49.176;16.626;2023-01-09T04:30:28;30.90;;;14.80;;
75680;SDS011;64294;49.176;16.626;2023-01-09T04:32:54;33.55;;;15.73;;
75680;SDS011;64294;49.176;16.626;2023-01-09T04:35:19;27.80;;;13.60;;
75680;SDS011;64294;49.176;16.626;2023-01-09T04:37:45;27.50;;;13.98;;
75680;SDS011;64294;49.176;16.626;2023-01-09T04:40:11;25.42;;;13.20;;
75680;SDS011;64294;49.176;16.626;2023-01-09T04:42:37;23.35;;;13.52;;
75680;SDS011;64294;49.176;16.626;2023-01-09T04:45:06;23.08;;;12.60;;
75680;SDS011;64294;49.176;16.626;2023-01-09T04:47:33;25.48;;;13.27;;
75680;SDS011;64294;49.176;16.626;2023-01-09T04:49:59;27.10;;;13.10;;
75680;SDS011;64294;49.176;16.626;2023-01-09T04:52:25;25.08;;;12.73;;
75680;SDS011;64294;49.176;16.626;2023-01-09T04:54:51;22.15;;;12.15;;
75680;SDS011;64294;49.176;16.626;2023-01-09T04:57:16;21.75;;;12.00;;
75680;SDS011;64294;49.176;16.626;2023-01-09T04:59:42;31.92;;;12.25;;
75680;SDS011;64294;49.176;16.626;2023-01-09T05:02:08;24.13;;;12.63;;
75680;SDS011;64294;49.176;16.626;2023-01-09T05:04:33;32.42;;;12.95;;
75680;SDS011;64294;49.176;16.626;2023-01-09T05:07:00;31.90;;;12.98;;
75680;SDS011;64294;49.176;16.626;2023-01-09T05:09:25;23.45;;;12.85;;
75680;SDS011;64294;49.176;16.626;2023-01-09T05:11:51;23.20;;;12.05;;
75680;SDS011;64294;49.176;16.626;2023-01-09T05:14:17;22.05;;;12.35;;
75680;SDS011;64294;49.176;16.626;2023-01-09T05:16:42;23.88;;;12.65;;
75680;SDS011;64294;49.176;16.626;2023-01-09T05:19:08;24.05;;;11.88;;
75680;SDS011;64294;49.176;16.626;2023-01-09T05:21:33;24.00;;;12.00;;
75680;SDS011;64294;49.176;16.626;2023-01-09T05:23:58;21.48;;;11.40;;
75680;SDS011;64294;49.176;16.626;2023-01-09T05:26:24;22.08;;;12.65;;
75680;SDS011;64294;49.176;16.626;2023-01-09T05:28:50;20.42;;;11.48;;
75680;SDS011;64294;49.176;16.626;2023-01-09T05:31:16;21.58;;;11.68;;
75680;SDS011;64294;49.176;16.626;2023-01-09T05:33:42;23.65;;;11.90;;
75680;SDS011;64294;49.176;16.626;2023-01-09T05:36:08;21.63;;;11.75;;
75680;SDS011;64294;49.176;16.626;2023-01-09T05:38:33;22.35;;;12.40;;
75680;SDS011;64294;49.176;16.626;2023-01-09T05:40:59;24.63;;;11.60;;
75680;SDS011;64294;49.176;16.626;2023-01-09T05:43:24;20.73;;;10.98;;
75680;SDS011;64294;49.176;16.626;2023-01-09T05:45:49;23.50;;;12.40;;
75680;SDS011;64294;49.176;16.626;2023-01-09T05:48:15;20.30;;;11.93;;
75680;SDS011;64294;49.176;16.626;2023-01-09T05:50:40;20.65;;;11.20;;
75680;SDS011;64294;49.176;16.626;2023-01-09T05:53:05;19.02;;;11.23;;
75680;SDS011;64294;49.176;16.626;2023-01-09T05:55:31;21.63;;;11.60;;
75680;SDS011;64294;49.176;16.626;2023-01-09T05:57:57;23.88;;;12.27;;
75680;SDS011;64294;49.176;16.626;2023-01-09T06:00:23;20.70;;;11.63;;
75680;SDS011;64294;49.176;16.626;2023-01-09T06:02:48;20.90;;;11.48;;
75680;SDS011;64294;49.176;16.626;2023-01-09T06:05:13;20.38;;;11.88;;
75680;SDS011;64294;49.176;16.626;2023-01-09T06:07:39;22.45;;;11.48;;
75680;SDS011;64294;49.176;16.626;2023-01-09T06:10:06;23.33;;;12.57;;
75680;SDS011;64294;49.176;16.626;2023-01-09T06:12:32;21.25;;;12.13;;
75680;SDS011;64294;49.176;16.626;2023-01-09T06:14:58;20.45;;;12.38;;
75680;SDS011;64294;49.176;16.626;2023-01-09T06:17:23;21.45;;;11.68;;
75680;SDS011;64294;49.176;16.626;2023-01-09T06:19:48;20.48;;;11.65;;
75680;SDS011;64294;49.176;16.626;2023-01-09T06:22:15;19.75;;;12.07;;
75680;SDS011;64294;49.176;16.626;2023-01-09T06:24:41;19.02;;;10.98;;
75680;SDS011;64294;49.176;16.626;2023-01-09T06:27:06;20.60;;;11.80;;
75680;SDS011;64294;49.176;16.626;2023-01-09T06:29:31;23.20;;;11.98;;
75680;SDS011;64294;49.176;16.626;2023-01-09T06:31:57;24.73;;;12.52;;
75680;SDS011;64294;49.176;16.626;2023-01-09T06:34:22;22.92;;;11.70;;
75680;SDS011;64294;49.176;16.626;2023-01-09T06:36:48;20.60;;;12.25;;
75680;SDS011;64294;49.176;16.626;2023-01-09T06:39:13;21.83;;;11.95;;
75680;SDS011;64294;49.176;16.626;2023-01-09T06:41:38;22.65;;;12.55;;
75680;SDS011;64294;49.176;16.626;2023-01-09T06:44:04;21.50;;;12.02;;
75680;SDS011;64294;49.176;16.626;2023-01-09T06:46:29;20.27;;;12.10;;
75680;SDS011;64294;49.176;16.626;2023-01-09T06:48:55;19.85;;;11.73;;
75680;SDS011;64294;49.176;16.626;2023-01-09T06:51:20;25.70;;;12.20;;
75680;SDS011;64294;49.176;16.626;2023-01-09T06:53:45;24.85;;;12.88;;
75680;SDS011;64294;49.176;16.626;2023-01-09T06:56:11;23.70;;;13.00;;
75680;SDS011;64294;49.176;16.626;2023-01-09T06:58:36;20.80;;;12.52;;
75680;SDS011;64294;49.176;16.626;2023-01-09T07:01:02;19.73;;;12.13;;
75680;SDS011;64294;49.176;16.626;2023-01-09T07:03:27;22.83;;;12.32;;
75680;SDS011;64294;49.176;16.626;2023-01-09T07:05:52;20.85;;;11.35;;
75680;SDS011;64294;49.176;16.626;2023-01-09T07:08:18;19.40;;;10.98;;
75680;SDS011;64294;49.176;16.626;2023-01-09T07:10:44;18.20;;;10.73;;
75680;SDS011;64294;49.176;16.626;2023-01-09T07:13:09;21.58;;;12.00;;
75680;SDS011;64294;49.176;16.626;2023-01-09T07:15:35;18.42;;;11.23;;
75680;SDS011;64294;49.176;16.626;2023-01-09T07:18:01;20.05;;;10.68;;
75680;SDS011;64294;49.176;16.626;2023-01-09T07:20:26;18.58;;;11.30;;
75680;SDS011;64294;49.176;16.626;2023-01-09T07:22:52;19.30;;;11.02;;
75680;SDS011;64294;49.176;16.626;2023-01-09T07:25:20;18.27;;;10.65;;
75680;SDS011;64294;49.176;16.626;2023-01-09T07:27:46;23.25;;;11.50;;
75680;SDS011;64294;49.176;16.626;2023-01-09T07:30:11;20.30;;;11.18;;
75680;SDS011;64294;49.176;16.626;2023-01-09T07:32:37;20.10;;;11.13;;
75680;SDS011;64294;49.176;16.626;2023-01-09T07:35:05;18.38;;;10.98;;
75680;SDS011;64294;49.176;16.626;2023-01-09T07:37:31;18.77;;;10.60;;
75680;SDS011;64294;49.176;16.626;2023-01-09T07:39:57;21.98;;;10.55;;
75680;SDS011;64294;49.176;16.626;2023-01-09T07:42:22;22.60;;;10.70;;
75680;SDS011;64294;49.176;16.626;2023-01-09T07:44:47;19.88;;;10.85;;
75680;SDS011;64294;49.176;16.626;2023-01-09T07:47:14;17.65;;;9.75;;
75680;SDS011;64294;49.176;16.626;2023-01-09T07:49:39;15.77;;;10.05;;
75680;SDS011;64294;49.176;16.626;2023-01-09T07:52:05;17.10;;;9.95;;
75680;SDS011;64294;49.176;16.626;2023-01-09T07:54:30;18.58;;;9.35;;
75680;SDS011;64294;49.176;16.626;2023-01-09T07:56:56;16.58;;;9.45;;
75680;SDS011;64294;49.176;16.626;2023-01-09T07:59:21;16.67;;;9.73;;
75680;SDS011;64294;49.176;16.626;2023-01-09T08:01:47;16.48;;;9.55;;
75680;SDS011;64294;49.176;16.626;2023-01-09T08:04:12;17.02;;;9.75;;
75680;SDS011;64294;49.176;16.626;2023-01-09T08:06:38;15.93;;;9.60;;
75680;SDS011;64294;49.176;16.626;2023-01-09T08:09:03;18.45;;;10.60;;
75680;SDS011;64294;49.176;16.626;2023-01-09T08:11:29;18.77;;;10.23;;
75680;SDS011;64294;49.176;16.626;2023-01-09T08:13:54;19.08;;;11.23;;
75680;SDS011;64294;49.176;16.626;2023-01-09T08:16:20;19.80;;;10.80;;
75680;SDS011;64294;49.176;16.626;2023-01-09T08:18:45;20.45;;;11.48;;
75680;SDS011;64294;49.176;16.626;2023-01-09T08:21:11;21.27;;;11.93;;
75680;SDS011;64294;49.176;16.626;2023-01-09T08:23:36;22.30;;;12.20;;
75680;SDS011;64294;49.176;16.626;2023-01-09T08:26:02;22.20;;;11.98;;
75680;SDS011;64294;49.176;16.626;2023-01-09T08:28:28;21.85;;;13.10;;
75680;SDS011;64294;49.176;16.626;2023-01-09T08:30:54;21.75;;;11.82;;
75680;SDS011;64294;49.176;16.626;2023-01-09T08:33:19;23.05;;;13.32;;
75680;SDS011;64294;49.176;16.626;2023-01-09T08:35:45;22.17;;;12.32;;
75680;SDS011;64294;49.176;16.626;2023-01-09T08:38:10;24.33;;;11.75;;
75680;SDS011;64294;49.176;16.626;2023-01-09T08:40:36;20.20;;;11.10;;
75680;SDS011;64294;49.176;16.626;2023-01-09T08:43:01;23.35;;;11.45;;
75680;SDS011;64294;49.176;16.626;2023-01-09T08:45:46;20.85;;;11.80;;
75680;SDS011;64294;49.176;16.626;2023-01-09T08:48:30;27.05;;;13.40;;
75680;SDS011;64294;49.176;16.626;2023-01-09T08:50:55;27.60;;;14.15;;
75680;SDS011;64294;49.176;16.626;2023-01-09T08:53:21;26.42;;;15.25;;
75680;SDS011;64294;49.176;16.626;2023-01-09T08:55:46;26.52;;;13.73;;
75680;SDS011;64294;49.176;16.626;2023-01-09T08:58:12;29.38;;;16.38;;
75680;SDS011;64294;49.176;16.626;2023-01-09T09:00:37;34.38;;;15.63;;
75680;SDS011;64294;49.176;16.626;2023-01-09T09:03:03;29.05;;;15.48;;
75680;SDS011;64294;49.176;16.626;2023-01-09T09:05:29;29.88;;;14.75;;
75680;SDS011;64294;49.176;16.626;2023-01-09T09:07:56;25.73;;;14.55;;
75680;SDS011;64294;49.176;16.626;2023-01-09T09:10:22;24.83;;;13.98;;
75680;SDS011;64294;49.176;16.626;2023-01-09T09:12:51;19.25;;;11.60;;
75680;SDS011;64294;49.176;16.626;2023-01-09T09:15:19;20.98;;;12.63;;
75680;SDS011;64294;49.176;16.626;2023-01-09T09:20:25;20.33;;;10.52;;
75680;SDS011;64294;49.176;16.626;2023-01-09T09:22:55;18.40;;;9.77;;
75680;SDS011;64294;49.176;16.626;2023-01-09T09:25:20;22.50;;;12.45;;
75680;SDS011;64294;49.176;16.626;2023-01-09T09:27:46;18.90;;;10.50;;
75680;SDS011;64294;49.176;16.626;2023-01-09T09:30:12;17.73;;;10.32;;
75680;SDS011;64294;49.176;16.626;2023-01-09T09:32:39;16.60;;;10.35;;
75680;SDS011;64294;49.176;16.626;2023-01-09T09:35:05;19.38;;;10.73;;
75680;SDS011;64294;49.176;16.626;2023-01-09T09:37:31;19.15;;;10.60;;
75680;SDS011;64294;49.176;16.626;2023-01-09T09:39:57;19.63;;;10.45;;
75680;SDS011;64294;49.176;16.626;2023-01-09T09:54:17;18.73;;;11.63;;
75680;SDS011;64294;49.176;16.626;2023-01-09T09:56:24;19.98;;;11.75;;
75680;SDS011;64294;49.176;16.626;2023-01-09T09:59:00;21.27;;;12.48;;
75680;SDS011;64294;49.176;16.626;2023-01-09T10:01:40;20.52;;;12.43;;
75680;SDS011;64294;49.176;16.626;2023-01-09T10:04:09;24.75;;;14.60;;
75680;SDS011;64294;49.176;16.626;2023-01-09T10:06:40;21.75;;;13.07;;
75680;SDS011;64294;49.176;16.626;2023-01-09T10:09:14;24.25;;;14.23;;
75680;SDS011;64294;49.176;16.626;2023-01-09T10:11:58;22.83;;;13.45;;
75680;SDS011;64294;49.176;16.626;2023-01-09T10:14:29;24.67;;;13.25;;
75680;SDS011;64294;49.176;16.626;2023-01-09T10:39:47;25.48;;;14.63;;
75680;SDS011;64294;49.176;16.626;2023-01-09T10:42:28;27.15;;;14.82;;
75680;SDS011;64294;49.176;16.626;2023-01-09T10:47:45;24.48;;;14.30;;
75680;SDS011;64294;49.176;16.626;2023-01-09T10:50:22;22.27;;;13.88;;
75680;SDS011;64294;49.176;16.626;2023-01-09T10:52:52;24.98;;;14.60;;
75680;SDS011;64294;49.176;16.626;2023-01-09T10:57:51;24.92;;;14.48;;
75680;SDS011;64294;49.176;16.626;2023-01-09T11:00:22;27.15;;;14.50;;
75680;SDS011;64294;49.176;16.626;2023-01-09T11:02:49;27.63;;;14.45;;
75680;SDS011;64294;49.176;16.626;2023-01-09T11:05:26;21.98;;;12.38;;
75680;SDS011;64294;49.176;16.626;2023-01-09T11:07:59;23.90;;;14.05;;
75680;SDS011;64294;49.176;16.626;2023-01-09T11:10:51;21.63;;;12.57;;
75680;SDS011;64294;49.176;16.626;2023-01-09T11:13:24;23.08;;;13.85;;
75680;SDS011;64294;49.176;16.626;2023-01-09T11:18:31;27.35;;;14.38;;
75680;SDS011;64294;49.176;16.626;2023-01-09T11:23:39;26.15;;;14.80;;
75680;SDS011;64294;49.176;16.626;2023-01-09T11:26:04;28.25;;;15.38;;
75680;SDS011;64294;49.176;16.626;2023-01-09T11:28:30;27.95;;;15.10;;
75680;SDS011;64294;49.176;16.626;2023-01-09T11:30:56;24.88;;;14.15;;
75680;SDS011;64294;49.176;16.626;2023-01-09T11:36:08;26.65;;;14.05;;
75680;SDS011;64294;49.176;16.626;2023-01-09T11:41:14;29.40;;;13.90;;
75680;SDS011;64294;49.176;16.626;2023-01-09T11:43:43;28.42;;;14.35;;
75680;SDS011;64294;49.176;16.626;2023-01-09T11:48:58;28.90;;;14.43;;
75680;SDS011;64294;49.176;16.626;2023-01-09T11:51:25;26.33;;;14.75;;
75680;SDS011;64294;49.176;16.626;2023-01-09T11:56:39;28.20;;;14.77;;
75680;SDS011;64294;49.176;16.626;2023-01-09T11:59:15;27.10;;;14.48;;
75680;SDS011;64294;49.176;16.626;2023-01-09T12:01:50;26.70;;;13.93;;
75680;SDS011;64294;49.176;16.626;2023-01-09T12:04:40;27.27;;;15.45;;
75680;SDS011;64294;49.176;16.626;2023-01-09T12:18:12;25.00;;;13.93;;
75680;SDS011;64294;49.176;16.626;2023-01-09T12:21:15;23.88;;;12.80;;
75680;SDS011;64294;49.176;16.626;2023-01-09T12:23:42;24.50;;;12.30;;
75680;SDS011;64294;49.176;16.626;2023-01-09T12:26:18;27.83;;;14.90;;
75680;SDS011;64294;49.176;16.626;2023-01-09T12:31:25;27.33;;;14.88;;
75680;SDS011;64294;49.176;16.626;2023-01-09T12:45:22;29.98;;;15.80;;
75680;SDS011;64294;49.176;16.626;2023-01-09T12:53:42;35.25;;;17.10;;
75680;SDS011;64294;49.176;16.626;2023-01-09T12:56:15;30.10;;;16.08;;
75680;SDS011;64294;49.176;16.626;2023-01-09T13:01:22;32.67;;;16.17;;
75680;SDS011;64294;49.176;16.626;2023-01-09T13:06:18;30.25;;;15.32;;
75680;SDS011;64294;49.176;16.626;2023-01-09T13:08:48;31.25;;;15.30;;
75680;SDS011;64294;49.176;16.626;2023-01-09T13:14:05;30.70;;;14.35;;
75680;SDS011;64294;49.176;16.626;2023-01-09T13:16:41;30.73;;;14.65;;
75680;SDS011;64294;49.176;16.626;2023-01-09T13:19:11;28.35;;;14.32;;
75680;SDS011;64294;49.176;16.626;2023-01-09T13:21:49;26.77;;;14.32;;
75680;SDS011;64294;49.176;16.626;2023-01-09T13:24:20;33.10;;;14.00;;
75680;SDS011;64294;49.176;16.626;2023-01-09T13:26:55;28.58;;;13.73;;
75680;SDS011;64294;49.176;16.626;2023-01-09T13:29:33;32.10;;;14.50;;
75680;SDS011;64294;49.176;16.626;2023-01-09T13:34:49;29.27;;;13.68;;
75680;SDS011;64294;49.176;16.626;2023-01-09T13:37:21;30.42;;;14.68;;
75680;SDS011;64294;49.176;16.626;2023-01-09T13:40:01;26.17;;;14.20;;
75680;SDS011;64294;49.176;16.626;2023-01-09T13:43:00;26.48;;;14.05;;
75680;SDS011;64294;49.176;16.626;2023-01-09T13:45:29;27.92;;;13.90;;
75680;SDS011;64294;49.176;16.626;2023-01-09T13:50:46;29.45;;;14.63;;
75680;SDS011;64294;49.176;16.626;2023-01-09T13:58:21;26.90;;;14.50;;
75680;SDS011;64294;49.176;16.626;2023-01-09T14:00:52;34.63;;;15.32;;
75680;SDS011;64294;49.176;16.626;2023-01-09T14:03:30;31.67;;;14.43;;
75680;SDS011;64294;49.176;16.626;2023-01-09T14:08:25;28.98;;;15.43;;
75680;SDS011;64294;49.176;16.626;2023-01-09T14:10:53;33.10;;;15.05;;
75680;SDS011;64294;49.176;16.626;2023-01-09T14:13:42;27.52;;;14.13;;
75680;SDS011;64294;49.176;16.626;2023-01-09T14:16:22;29.55;;;15.07;;
75680;SDS011;64294;49.176;16.626;2023-01-09T14:18:52;28.65;;;14.50;;
75680;SDS011;64294;49.176;16.626;2023-01-09T14:21:25;28.15;;;13.93;;
75680;SDS011;64294;49.176;16.626;2023-01-09T14:24:03;28.55;;;14.75;;
75680;SDS011;64294;49.176;16.626;2023-01-09T14:27:03;29.67;;;14.90;;
75680;SDS011;64294;49.176;16.626;2023-01-09T14:34:56;29.27;;;15.18;;
75680;SDS011;64294;49.176;16.626;2023-01-09T14:37:23;29.55;;;15.18;;
75680;SDS011;64294;49.176;16.626;2023-01-09T14:39:50;35.42;;;15.73;;
75680;SDS011;64294;49.176;16.626;2023-01-09T14:42:17;30.02;;;15.27;;
75680;SDS011;64294;49.176;16.626;2023-01-09T14:47:47;31.17;;;15.60;;
75680;SDS011;64294;49.176;16.626;2023-01-09T14:55:50;29.63;;;15.52;;
75680;SDS011;64294;49.176;16.626;2023-01-09T15:00:59;31.15;;;15.98;;
75680;SDS011;64294;49.176;16.626;2023-01-09T15:03:40;32.53;;;16.33;;
75680;SDS011;64294;49.176;16.626;2023-01-09T15:06:13;32.03;;;16.63;;
75680;SDS011;64294;49.176;16.626;2023-01-09T15:08:45;37.47;;;16.75;;
75680;SDS011;64294;49.176;16.626;2023-01-09T15:11:20;39.55;;;16.25;;
75680;SDS011;64294;49.176;16.626;2023-01-09T15:13:46;37.72;;;16.75;;
75680;SDS011;64294;49.176;16.626;2023-01-09T15:16:21;31.75;;;16.52;;
75680;SDS011;64294;49.176;16.626;2023-01-09T15:21:17;34.28;;;16.85;;
75680;SDS011;64294;49.176;16.626;2023-01-09T15:23:45;29.15;;;14.88;;
75680;SDS011;64294;49.176;16.626;2023-01-09T15:26:12;36.65;;;16.50;;
75680;SDS011;64294;49.176;16.626;2023-01-09T15:28:41;36.17;;;17.38;;
75680;SDS011;64294;49.176;16.626;2023-01-09T15:31:14;35.10;;;17.45;;
75680;SDS011;64294;49.176;16.626;2023-01-09T15:33:42;31.23;;;16.75;;
75680;SDS011;64294;49.176;16.626;2023-01-09T15:36:12;35.00;;;16.50;;
75680;SDS011;64294;49.176;16.626;2023-01-09T15:38:42;30.98;;;15.93;;
75680;SDS011;64294;49.176;16.626;2023-01-09T15:41:10;34.28;;;17.33;;
75680;SDS011;64294;49.176;16.626;2023-01-09T15:43:59;32.42;;;16.48;;
75680;SDS011;64294;49.176;16.626;2023-01-09T15:46:26;32.38;;;16.98;;
75680;SDS011;64294;49.176;16.626;2023-01-09T15:48:54;31.15;;;15.50;;
75680;SDS011;64294;49.176;16.626;2023-01-09T15:51:20;31.85;;;16.10;;
75680;SDS011;64294;49.176;16.626;2023-01-09T15:53:46;29.90;;;16.25;;
75680;SDS011;64294;49.176;16.626;2023-01-09T15:58:57;34.30;;;18.05;;
75680;SDS011;64294;49.176;16.626;2023-01-09T16:01:27;35.35;;;19.95;;
75680;SDS011;64294;49.176;16.626;2023-01-09T16:03:57;36.65;;;17.45;;
75680;SDS011;64294;49.176;16.626;2023-01-09T16:06:28;36.15;;;17.80;;
75680;SDS011;64294;49.176;16.626;2023-01-09T16:08:56;36.13;;;17.50;;
75680;SDS011;64294;49.176;16.626;2023-01-09T16:11:33;31.48;;;17.05;;
75680;SDS011;64294;49.176;16.626;2023-01-09T16:16:36;30.25;;;15.98;;
75680;SDS011;64294;49.176;16.626;2023-01-09T16:19:02;29.65;;;16.30;;
75680;SDS011;64294;49.176;16.626;2023-01-09T16:24:20;27.05;;;15.25;;
75680;SDS011;64294;49.176;16.626;2023-01-09T16:27:31;29.77;;;15.63;;
75680;SDS011;64294;49.176;16.626;2023-01-09T16:29:47;34.50;;;16.30;;
75680;SDS011;64294;49.176;16.626;2023-01-09T16:32:23;32.80;;;16.13;;
75680;SDS011;64294;49.176;16.626;2023-01-09T16:34:59;33.67;;;16.17;;
75680;SDS011;64294;49.176;16.626;2023-01-09T16:37:29;29.92;;;16.02;;
75680;SDS011;64294;49.176;16.626;2023-01-09T16:42:45;31.10;;;16.58;;
75680;SDS011;64294;49.176;16.626;2023-01-09T16:45:45;33.88;;;16.58;;
75680;SDS011;64294;49.176;16.626;2023-01-09T16:48:14;31.00;;;16.15;;
75680;SDS011;64294;49.176;16.626;2023-01-09T16:50:46;31.65;;;17.15;;
75680;SDS011;64294;49.176;16.626;2023-01-09T16:53:13;27.55;;;15.48;;
75680;SDS011;64294;49.176;16.626;2023-01-09T16:55:40;31.92;;;16.83;;
75680;SDS011;64294;49.176;16.626;2023-01-09T16:58:07;33.67;;;17.70;;
75680;SDS011;64294;49.176;16.626;2023-01-09T17:00:37;34.60;;;18.02;;
75680;SDS011;64294;49.176;16.626;2023-01-09T17:03:03;33.22;;;17.15;;
75680;SDS011;64294;49.176;16.626;2023-01-09T17:05:28;31.40;;;16.50;;
75680;SDS011;64294;49.176;16.626;2023-01-09T17:07:53;32.78;;;17.17;;
75680;SDS011;64294;49.176;16.626;2023-01-09T17:10:20;35.17;;;16.52;;
75680;SDS011;64294;49.176;16.626;2023-01-09T17:12:46;30.00;;;15.30;;